Lazy Lake, Florida
Current Conditions -  °F | °C
As of 11:53 PM on Monday 20 Oct 2014 (Local Time) from KFXE Reporting Station
Broken Clouds Broken Clouds  
Wind Chill: 77°   Ceiling: 5500
Heat Index: 78°   Visibility: 10mi
Dew Point: 72°   Wind: 0mph
Humidity: 84%   Direction: NA
Pressure: 29.98"   Gusts: NA
Location:  26.1532°N, 80.1262°W
Report Text: KFXE 210353Z 00000KT 10SM BKN055 25/22 A2998 RMK AO2 SLP154 T02500222
Loading
Personal Weather Stations






























Interactive Weather Map
Tropical Storm Tracking
New forecast layout! Learn more

10-Day Weather Forecast

Advertisements
Track Severe Weather on mobile